Time;durP1;ratioP1;P1;durP2;ratioP2;P2;SDS_P1;SDS_P2;PMS_P1;PMS_P2;Temp;Humidity;BMP_temperature;BMP_pressure;BME280_temperature;BME280_humidity;BME280_pressure;Samples;Min_cycle;Max_cycle;Signal;HPM_P1;HPM_P2
2022/07/29 07:18:13;;;;;;;;;11.00;10.25;;;;;22.60;45.66;101350.34;5045165;27;45868;-73
2022/07/29 07:20:38;;;;;;;;;13.25;12.50;;;;;22.66;45.33;101352.44;5027147;27;45587;-74
2022/07/29 07:23:04;;;;;;;;;11.75;11.50;;;;;22.90;45.60;101357.31;5030988;28;50862;-72
2022/07/29 07:25:30;;;;;;;;;11.00;11.00;;;;;23.14;45.25;101355.91;5029233;27;45674;-73
2022/07/29 07:27:55;;;;;;;;;10.67;9.67;;;;;23.41;44.75;101358.78;5032452;27;45580;-74
2022/07/29 07:30:21;;;;;;;;;10.33;10.33;;;;;23.68;44.88;101360.59;5030082;27;45505;-75
2022/07/29 07:32:46;;;;;;;;;11.33;11.33;;;;;23.97;44.02;101364.06;5034036;27;45409;-73
2022/07/29 07:35:11;;;;;;;;;10.67;10.67;;;;;24.26;43.21;101367.50;5030370;27;45465;-74
2022/07/29 07:37:38;;;;;;;;;11.00;9.67;;;;;24.53;42.59;101360.25;5032684;27;46069;-72
2022/07/29 07:40:04;;;;;;;;;10.00;10.00;;;;;24.74;42.08;101357.97;5039472;27;45493;-75
2022/07/29 07:42:29;;;;;;;;;9.67;9.67;;;;;24.97;41.47;101357.44;5036774;27;46855;-76
2022/07/29 07:44:55;;;;;;;;;12.33;9.33;;;;;25.22;41.19;101360.22;5033890;27;45508;-75
2022/07/29 07:47:20;;;;;;;;;11.00;11.00;;;;;25.41;41.04;101355.53;5038830;27;46076;-75
2022/07/29 07:49:47;;;;;;;;;11.67;10.33;;;;;25.60;40.23;101361.72;5029083;27;45551;-74
2022/07/29 07:52:13;;;;;;;;;11.00;10.33;;;;;25.77;40.31;101360.72;5041446;28;45398;-74
2022/07/29 07:54:38;;;;;;;;;11.00;10.33;;;;;25.91;39.69;101356.47;5045295;27;45528;-73
2022/07/29 07:57:03;;;;;;;;;12.00;11.67;;;;;26.05;39.82;101359.53;5046158;28;49811;-71
2022/07/29 07:59:29;;;;;;;;;13.00;12.00;;;;;26.14;39.30;101355.78;5042888;28;45460;-73
2022/07/29 08:01:54;;;;;;;;;13.00;13.00;;;;;26.26;39.09;101356.31;5036228;28;45747;-73
2022/07/29 08:04:20;;;;;;;;;12.33;11.00;;;;;26.39;39.01;101372.09;5056986;28;45348;-72
2022/07/29 08:06:45;;;;;;;;;10.67;10.67;;;;;26.50;38.85;101367.31;5043545;28;46938;-73
2022/07/29 08:09:10;;;;;;;;;11.67;11.67;;;;;26.54;38.73;101355.06;5039569;27;45426;-73
2022/07/29 08:11:35;;;;;;;;;12.33;11.33;;;;;26.65;38.85;101371.00;5036770;27;45789;-73
2022/07/29 08:14:01;;;;;;;;;11.67;9.00;;;;;26.74;38.77;101360.97;5036388;27;45516;-72
2022/07/29 08:16:27;;;;;;;;;9.67;9.67;;;;;26.79;38.07;101354.97;5035530;27;45512;-74
2022/07/29 08:18:56;;;;;;;;;11.67;10.67;;;;;26.88;37.80;101353.91;5057102;27;45363;-73
2022/07/29 08:21:22;;;;;;;;;12.00;12.00;;;;;26.94;38.33;101375.03;5038985;28;45329;-73
2022/07/29 08:23:52;;;;;;;;;12.33;10.33;;;;;27.01;37.95;101368.91;5040433;28;45404;-73
2022/07/29 08:26:19;;;;;;;;;11.00;11.00;;;;;27.08;38.17;101375.31;5040525;28;45416;-74
2022/07/29 08:28:48;;;;;;;;;11.67;8.67;;;;;27.14;37.66;101371.03;5022190;27;45752;-73
2022/07/29 08:31:14;;;;;;;;;9.67;8.67;;;;;27.21;37.48;101375.59;5018701;28;45607;-73
2022/07/29 08:33:39;;;;;;;;;14.33;13.00;;;;;27.26;36.71;101369.59;5026612;27;46935;-74
2022/07/29 08:36:06;;;;;;;;;13.67;11.00;;;;;27.31;37.21;101379.97;5028301;27;45528;-73
2022/07/29 08:38:31;;;;;;;;;13.33;11.00;;;;;27.29;37.00;101368.38;5022038;28;45436;-73
2022/07/29 08:40:58;;;;;;;;;14.00;11.00;;;;;27.40;36.75;101376.19;5030628;28;45472;-73
2022/07/29 08:43:24;;;;;;;;;9.33;8.33;;;;;27.42;36.56;101367.81;5023158;27;45590;-73
2022/07/29 08:45:50;;;;;;;;;11.33;10.00;;;;;27.50;36.25;101370.47;5021060;28;46049;-74
2022/07/29 08:48:19;;;;;;;;;11.00;10.00;;;;;27.55;36.81;101372.69;5048600;28;45430;-72
2022/07/29 08:50:46;;;;;;;;;12.67;10.33;;;;;27.60;36.95;101371.16;5021899;28;45429;-73
2022/07/29 08:53:15;;;;;;;;;10.67;10.67;;;;;27.65;36.36;101370.59;5031482;27;45408;-73
2022/07/29 08:55:44;;;;;;;;;9.67;9.67;;;;;27.73;36.29;101375.13;5027647;28;45552;-74
2022/07/29 08:58:10;;;;;;;;;10.00;10.00;;;;;27.80;36.31;101376.13;5024158;27;45615;-74
2022/07/29 09:00:39;;;;;;;;;12.67;10.67;;;;;27.85;37.04;101367.38;5021300;28;45737;-73
2022/07/29 09:03:05;;;;;;;;;11.33;10.33;;;;;27.91;36.79;101368.53;5030773;28;45656;-74
2022/07/29 09:05:32;;;;;;;;;12.00;10.33;;;;;27.95;36.44;101365.22;5020182;27;46310;-71
2022/07/29 09:07:59;;;;;;;;;11.67;9.00;;;;;27.98;37.09;101364.00;5029634;28;46367;-71
2022/07/29 09:10:24;;;;;;;;;9.33;9.33;;;;;28.04;37.10;101362.44;5028834;27;45332;-70
2022/07/29 09:12:50;;;;;;;;;10.67;9.00;;;;;28.07;36.89;101354.72;5031189;28;45460;-70
2022/07/29 09:15:15;;;;;;;;;9.00;9.00;;;;;28.09;36.36;101357.28;5031916;27;46184;-71
2022/07/29 09:17:46;;;;;;;;;9.67;9.67;;;;;28.20;36.87;101364.19;5028534;28;45488;-71
2022/07/29 09:20:17;;;;;;;;;8.00;8.00;;;;;28.22;36.70;101353.91;5032796;28;45432;-71
2022/07/29 09:22:43;;;;;;;;;13.67;9.00;;;;;28.27;35.84;101362.41;5033778;28;45439;-72
2022/07/29 09:25:11;;;;;;;;;8.00;8.00;;;;;28.26;36.45;101344.34;5029559;28;46015;-71
2022/07/29 09:27:37;;;;;;;;;11.00;10.67;;;;;28.34;36.61;101354.34;5021155;27;47433;-71
2022/07/29 09:30:06;;;;;;;;;8.00;8.00;;;;;28.37;35.81;101354.81;5031864;28;45447;-71
2022/07/29 09:32:33;;;;;;;;;10.67;9.00;;;;;28.40;35.70;101351.72;5030689;28;45347;-71
2022/07/29 09:35:21;;;;;;;;;9.67;9.67;;;;;28.39;35.69;101346.44;5029019;28;45476;-71
2022/07/29 09:37:47;;;;;;;;;11.00;9.00;;;;;28.41;35.99;101350.66;5029044;28;45687;-72
2022/07/29 09:40:21;;;;;;;;;8.00;8.00;;;;;28.46;35.49;101355.59;5013333;28;45788;-72
2022/07/29 09:42:48;;;;;;;;;8.33;8.33;;;;;28.44;36.06;101351.34;5023625;27;46322;-72
2022/07/29 09:45:27;;;;;;;;;10.00;8.67;;;;;28.49;36.13;101354.34;5033902;27;45368;-72
2022/07/29 09:47:53;;;;;;;;;8.67;8.33;;;;;28.47;36.18;101357.28;5030498;28;45488;-73
2022/07/29 09:50:23;;;;;;;;;8.33;7.67;;;;;28.48;35.83;101350.78;5016900;28;45548;-71
2022/07/29 09:52:53;;;;;;;;;11.00;9.67;;;;;28.50;35.47;101350.59;5029992;28;45527;-72
2022/07/29 09:55:19;;;;;;;;;7.33;7.33;;;;;28.52;35.48;101351.22;5016605;28;47098;-71
2022/07/29 09:57:46;;;;;;;;;10.67;8.67;;;;;28.53;35.72;101355.69;5026420;28;46201;-72
2022/07/29 10:00:15;;;;;;;;;8.67;8.67;;;;;28.50;35.73;101342.41;5020234;28;45611;-71
2022/07/29 10:02:43;;;;;;;;;9.00;9.00;;;;;28.43;36.00;101327.78;5005615;27;45514;-72
2022/07/29 10:05:19;;;;;;;;;9.67;8.33;;;;;28.47;35.83;101326.38;5030161;28;47639;-72
2022/07/29 10:07:49;;;;;;;;;10.00;7.33;;;;;28.59;35.67;101349.47;5023854;28;45384;-71
2022/07/29 10:10:23;;;;;;;;;9.33;7.33;;;;;28.58;35.68;101344.19;5024958;28;45609;-72
2022/07/29 10:12:51;;;;;;;;;9.00;9.00;;;;;28.62;34.75;101348.22;5022417;27;45552;-71
2022/07/29 10:15:17;;;;;;;;;7.00;7.00;;;;;28.50;35.05;101335.06;5018280;28;46376;-72
2022/07/29 10:17:43;;;;;;;;;8.00;8.00;;;;;28.45;34.96;101326.59;5031379;28;45378;-71
2022/07/29 10:20:09;;;;;;;;;10.00;8.00;;;;;28.47;35.08;101326.38;5021607;27;46396;-71
2022/07/29 10:22:36;;;;;;;;;7.67;7.67;;;;;28.48;35.66;101325.38;5021958;28;45559;-72
2022/07/29 10:25:02;;;;;;;;;9.33;8.33;;;;;28.44;35.38;101307.66;5033348;28;46115;-72
2022/07/29 10:27:27;;;;;;;;;7.67;7.67;;;;;28.44;34.67;101308.50;5028447;28;45917;-72
2022/07/29 10:29:53;;;;;;;;;8.00;7.33;;;;;28.52;35.32;101323.94;5037710;27;46853;-72
2022/07/29 10:32:42;;;;;;;;;7.67;7.33;;;;;28.73;34.79;101352.38;5025985;28;45486;-72
2022/07/29 10:35:25;;;;;;;;;9.00;7.67;;;;;28.75;34.86;101359.34;5023988;28;46297;-71
2022/07/29 10:38:27;;;;;;;;;8.33;7.67;;;;;28.76;34.70;101360.16;5022387;28;45747;-72
2022/07/29 10:43:44;;;;;;;;;8.33;6.67;;;;;28.52;34.64;101321.19;5031796;28;45699;-71
2022/07/29 10:46:11;;;;;;;;;7.00;7.00;;;;;28.60;34.86;101332.03;5030938;28;45472;-72
2022/07/29 10:49:08;;;;;;;;;8.33;8.33;;;;;28.79;34.54;101357.06;5013820;28;45508;-72
2022/07/29 10:51:56;;;;;;;;;7.67;7.00;;;;;28.79;34.37;101352.47;5027934;28;45456;-72
2022/07/29 10:54:47;;;;;;;;;14.00;8.33;;;;;28.82;34.65;101353.97;5016782;28;45780;-72
2022/07/29 10:57:15;;;;;;;;;6.67;6.67;;;;;28.83;34.19;101352.94;5006804;28;46693;-72
2022/07/29 10:59:45;;;;;;;;;7.67;7.67;;;;;28.86;34.35;101355.28;5010997;27;45608;-71
2022/07/29 11:02:32;;;;;;;;;7.33;7.33;;;;;28.88;34.27;101353.25;5021753;28;45464;-69
2022/07/29 11:04:58;;;;;;;;;8.00;7.00;;;;;28.89;34.63;101348.63;5016628;27;45618;-70
2022/07/29 11:07:24;;;;;;;;;8.00;8.00;;;;;28.74;34.84;101326.75;5024617;28;45698;-70
2022/07/29 11:10:15;;;;;;;;;9.00;7.67;;;;;28.90;34.21;101351.16;5038330;28;45491;-71
2022/07/29 11:12:40;;;;;;;;;7.00;7.00;;;;;28.92;34.49;101349.09;5013561;28;45465;-71
2022/07/29 11:15:08;;;;;;;;;8.00;8.00;;;;;28.93;34.40;101353.50;5019676;28;45366;-70
2022/07/29 11:17:52;;;;;;;;;7.67;7.67;;;;;28.96;34.24;101349.53;5031055;28;46436;-70
2022/07/29 11:20:36;;;;;;;;;7.00;7.00;;;;;28.98;33.85;101349.38;5028258;27;45527;-71
2022/07/29 11:23:16;;;;;;;;;7.00;6.00;;;;;28.94;33.86;101343.44;5029757;28;45547;-71
2022/07/29 11:25:42;;;;;;;;;7.33;7.33;;;;;28.99;34.50;101343.72;5026787;28;45798;-71
2022/07/29 11:28:18;;;;;;;;;6.33;6.33;;;;;28.82;33.99;101321.19;5018301;28;45481;-72
2022/07/29 11:30:51;;;;;;;;;9.00;9.00;;;;;28.86;33.90;101319.78;5031378;28;45452;-72
2022/07/29 11:33:29;;;;;;;;;5.33;5.33;;;;;29.04;34.13;101352.19;5022841;27;45486;-71
2022/07/29 11:36:12;;;;;;;;;7.33;7.00;;;;;29.06;34.04;101344.63;5022222;27;45614;-71
2022/07/29 11:38:38;;;;;;;;;7.00;7.00;;;;;28.89;34.16;101311.22;5023118;28;46395;-71
2022/07/29 11:41:35;;;;;;;;;7.33;7.00;;;;;29.10;33.89;101349.72;5029151;28;45629;-71
2022/07/29 11:44:01;;;;;;;;;9.00;7.67;;;;;28.87;34.11;101315.16;5030138;27;45458;-71
2022/07/29 11:46:55;;;;;;;;;7.67;7.67;;;;;29.10;33.74;101346.97;5031120;28;45430;-71
2022/07/29 11:49:25;;;;;;;;;7.67;6.67;;;;;28.93;33.54;101319.88;5032056;28;45525;-71
2022/07/29 11:51:52;;;;;;;;;5.67;5.67;;;;;29.10;33.41;101341.53;5010562;28;45624;-71
2022/07/29 11:54:25;;;;;;;;;8.00;7.67;;;;;28.88;33.62;101303.16;5019783;28;45531;-71
2022/07/29 11:56:51;;;;;;;;;8.67;7.67;;;;;29.11;33.42;101340.47;5029267;28;45324;-71
2022/07/29 11:59:18;;;;;;;;;8.33;8.33;;;;;29.12;33.36;101333.97;5027974;28;46214;-71
2022/07/29 12:02:00;;;;;;;;;6.33;6.00;;;;;29.13;33.74;101339.25;5028216;28;45560;-71
2022/07/29 12:04:29;;;;;;;;;8.00;8.00;;;;;29.14;34.02;101342.84;5029872;28;45455;-72
2022/07/29 12:06:56;;;;;;;;;8.67;5.33;;;;;29.14;33.50;101340.09;5029359;28;45573;-71
2022/07/29 12:09:23;;;;;;;;;11.33;8.33;;;;;29.15;33.80;101337.19;5030258;27;47073;-70
2022/07/29 12:11:55;;;;;;;;;11.33;8.67;;;;;29.11;33.91;101327.66;5100251;27;45463;-70
2022/07/29 12:14:28;;;;;;;;;9.00;7.00;;;;;29.15;33.67;101325.38;5028023;27;45703;-70
2022/07/29 12:16:54;;;;;;;;;11.00;8.67;;;;;29.06;34.13;101313.75;5017612;27;45583;-71
2022/07/29 12:19:19;;;;;;;;;6.00;6.00;;;;;29.12;34.08;101334.81;5018783;28;46178;-72
2022/07/29 12:21:45;;;;;;;;;9.33;8.00;;;;;29.13;34.05;101338.38;5012617;28;45519;-72
2022/07/29 12:24:11;;;;;;;;;10.33;7.33;;;;;29.14;34.00;101340.09;5033538;27;45396;-72
2022/07/29 12:26:49;;;;;;;;;10.33;9.00;;;;;29.14;34.44;101338.19;5025307;28;45405;-72
2022/07/29 12:29:18;;;;;;;;;6.00;6.00;;;;;29.17;34.12;101339.69;5016561;28;45672;-71
2022/07/29 12:31:44;;;;;;;;;8.67;8.67;;;;;29.19;33.61;101340.38;5029329;28;45389;-71
2022/07/29 12:34:11;;;;;;;;;8.33;8.33;;;;;29.21;33.79;101337.44;5016073;28;45461;-71
2022/07/29 12:36:37;;;;;;;;;7.33;7.33;;;;;29.22;34.10;101339.97;5011816;28;45829;-71
2022/07/29 12:39:03;;;;;;;;;10.00;8.00;;;;;29.22;34.22;101339.13;5022233;28;45498;-71
2022/07/29 12:41:29;;;;;;;;;9.00;6.00;;;;;29.21;33.77;101338.28;5033743;28;45346;-71
2022/07/29 12:43:55;;;;;;;;;7.00;7.00;;;;;29.19;33.92;101326.69;5021385;28;45434;-71
2022/07/29 12:46:20;;;;;;;;;9.00;7.67;;;;;29.19;33.60;101329.44;5033466;28;45338;-71
2022/07/29 12:48:54;;;;;;;;;6.67;6.00;;;;;29.20;33.68;101320.19;5031317;27;46176;-71
2022/07/29 12:51:38;;;;;;;;;7.67;7.67;;;;;29.18;34.08;101323.09;5014656;28;45418;-71
2022/07/29 12:54:08;;;;;;;;;7.00;7.00;;;;;29.18;33.76;101333.22;5022748;28;45913;-71
2022/07/29 12:56:34;;;;;;;;;7.00;7.00;;;;;29.17;33.65;101339.69;5031675;28;45575;-71
2022/07/29 12:58:59;;;;;;;;;7.00;6.00;;;;;29.17;33.96;101326.88;5033058;28;45413;-70
2022/07/29 13:01:27;;;;;;;;;7.00;7.00;;;;;29.13;34.12;101328.31;5032027;28;45470;-71
2022/07/29 13:03:57;;;;;;;;;8.00;8.00;;;;;29.16;33.72;101335.28;5028697;28;45395;-71
2022/07/29 13:06:33;;;;;;;;;5.67;5.67;;;;;29.16;34.04;101338.88;5033622;28;45432;-72
2022/07/29 13:09:13;;;;;;;;;7.67;6.67;;;;;29.16;33.79;101338.88;5031317;27;46261;-71
2022/07/29 13:11:42;;;;;;;;;7.00;7.00;;;;;29.17;33.51;101334.22;5033033;28;45658;-71
2022/07/29 13:14:09;;;;;;;;;5.00;4.33;;;;;29.16;34.12;101325.19;5037251;28;45424;-71
2022/07/29 13:16:37;;;;;;;;;6.33;6.00;;;;;29.16;33.68;101329.81;5020857;28;45572;-71
2022/07/29 13:19:07;;;;;;;;;6.67;6.67;;;;;29.16;34.18;101336.13;5032279;28;46056;-71
2022/07/29 13:21:33;;;;;;;;;7.67;7.33;;;;;29.16;33.91;101333.41;5032411;28;45381;-71
2022/07/29 13:23:59;;;;;;;;;7.67;7.67;;;;;29.15;33.59;101331.72;5017572;28;45465;-71
2022/07/29 13:26:24;;;;;;;;;8.00;6.67;;;;;29.15;34.54;101325.38;5016098;27;45790;-71
2022/07/29 13:28:49;;;;;;;;;9.00;7.00;;;;;29.14;34.62;101327.25;5012864;28;46992;-71
2022/07/29 13:31:15;;;;;;;;;6.00;5.67;;;;;29.07;34.61;101329.09;5007738;28;54069;-72
2022/07/29 13:33:40;;;;;;;;;9.00;8.00;;;;;28.86;34.52;101322.50;5009475;28;45644;-71
2022/07/29 13:36:06;;;;;;;;;8.00;6.33;;;;;28.71;35.37;101335.31;5009388;28;45504;-71
2022/07/29 13:38:31;;;;;;;;;12.67;10.67;;;;;28.56;35.36;101332.63;5009195;28;45859;-72
2022/07/29 13:40:57;;;;;;;;;11.00;9.67;;;;;28.41;36.20;101338.91;5007858;28;45579;-70
2022/07/29 13:43:23;;;;;;;;;8.67;8.00;;;;;28.29;36.18;101333.06;5022419;27;45381;-73
2022/07/29 13:45:48;;;;;;;;;9.33;7.67;;;;;28.23;37.12;101340.09;5026445;28;45615;-71
2022/07/29 13:48:13;;;;;;;;;14.00;10.00;;;;;28.21;37.20;101330.38;5018898;27;45873;-71
2022/07/29 13:50:39;;;;;;;;;14.50;10.00;;;;;28.14;36.71;101333.88;5013738;28;45633;-72
2022/07/29 13:53:04;;;;;;;;;12.33;10.33;;;;;28.12;37.18;101337.81;5028203;27;45435;-72
2022/07/29 13:55:29;;;;;;;;;8.67;8.67;;;;;28.04;37.70;101337.88;5031399;28;45390;-73
2022/07/29 13:57:55;;;;;;;;;9.00;9.00;;;;;28.04;37.25;101329.69;5028706;28;45499;-72
2022/07/29 14:00:20;;;;;;;;;8.67;7.67;;;;;28.02;37.84;101338.94;5040490;28;45305;-72
2022/07/29 14:02:45;;;;;;;;;6.67;6.67;;;;;27.95;37.84;101329.78;5091511;27;45430;-72
2022/07/29 14:05:11;;;;;;;;;6.33;6.33;;;;;27.98;37.46;101331.28;5016548;27;45370;-72
2022/07/29 14:07:39;;;;;;;;;8.00;8.00;;;;;28.02;37.95;101336.19;5010060;28;45618;-72
2022/07/29 14:10:05;;;;;;;;;10.00;8.67;;;;;27.94;37.97;101317.16;5014520;28;46976;-71
2022/07/29 14:12:31;;;;;;;;;7.00;7.00;;;;;28.06;37.57;101331.22;5030012;28;45526;-71
2022/07/29 14:14:56;;;;;;;;;10.00;7.67;;;;;28.04;38.05;101327.84;5027015;28;45421;-71
2022/07/29 14:17:22;;;;;;;;;6.67;6.33;;;;;28.02;37.47;101335.34;5023796;28;45478;-71
2022/07/29 14:19:48;;;;;;;;;8.00;7.00;;;;;28.02;38.21;101330.75;5023702;28;45754;-71
2022/07/29 14:22:13;;;;;;;;;9.00;8.33;;;;;28.05;37.47;101331.41;5020291;28;45444;-72
2022/07/29 14:24:38;;;;;;;;;9.00;6.00;;;;;28.05;38.14;101337.72;5024679;28;45409;-72
2022/07/29 14:27:05;;;;;;;;;10.33;10.00;;;;;27.97;37.61;101319.53;5019576;28;47264;-72
2022/07/29 14:29:30;;;;;;;;;9.33;7.33;;;;;28.09;38.05;101332.72;5019581;28;46063;-73
2022/07/29 14:31:56;;;;;;;;;7.33;7.33;;;;;28.06;37.44;101325.75;5038168;28;45414;-72
2022/07/29 14:34:21;;;;;;;;;8.00;8.00;;;;;28.06;38.06;101322.16;5026934;27;45564;-72
2022/07/29 14:36:46;;;;;;;;;8.00;6.00;;;;;28.04;38.01;101326.97;5021381;28;46158;-72
2022/07/29 14:39:12;;;;;;;;;4.67;4.67;;;;;28.04;37.76;101330.56;5051629;27;45357;-72
2022/07/29 14:41:37;;;;;;;;;3.00;3.00;;;;;27.99;37.70;101322.06;5024307;28;45656;-71
2022/07/29 14:44:03;;;;;;;;;9.00;7.00;;;;;27.99;37.63;101317.47;5011707;28;46317;-71
2022/07/29 14:46:29;;;;;;;;;6.67;6.67;;;;;27.97;38.41;101319.53;5079372;27;46136;-72
2022/07/29 14:48:54;;;;;;;;;7.33;6.00;;;;;27.96;38.31;101326.00;5014257;27;45524;-73
2022/07/29 14:51:19;;;;;;;;;7.00;7.00;;;;;27.93;37.76;101322.81;5013537;28;45607;-72
2022/07/29 14:53:45;;;;;;;;;10.67;8.67;;;;;27.93;37.90;101323.66;5016227;27;45658;-72
2022/07/29 14:56:10;;;;;;;;;5.33;5.33;;;;;27.93;37.73;101325.53;5014124;28;45510;-72
2022/07/29 14:58:36;;;;;;;;;7.67;7.33;;;;;27.93;37.95;101331.84;5010681;28;45464;-71
2022/07/29 15:01:01;;;;;;;;;7.33;6.00;;;;;27.92;38.32;101323.84;5017327;28;45783;-72
2022/07/29 15:03:27;;;;;;;;;7.00;6.00;;;;;27.93;37.67;101320.94;5017467;28;45469;-72
2022/07/29 15:05:53;;;;;;;;;7.33;6.00;;;;;27.95;38.06;101318.84;5022450;28;46905;-72
2022/07/29 15:08:19;;;;;;;;;5.00;5.00;;;;;27.98;38.39;101317.63;5026457;28;45510;-72
2022/07/29 15:10:44;;;;;;;;;5.00;5.00;;;;;28.01;37.92;101326.31;5027995;28;45425;-72
2022/07/29 15:13:09;;;;;;;;;6.67;6.33;;;;;27.97;37.98;101318.69;5031575;28;46231;-72
2022/07/29 15:15:35;;;;;;;;;5.33;5.33;;;;;27.97;38.10;101322.25;5029455;28;45464;-73
2022/07/29 15:18:00;;;;;;;;;7.00;6.00;;;;;27.92;38.19;101318.38;5020922;28;45341;-72
2022/07/29 15:20:26;;;;;;;;;7.33;5.00;;;;;27.93;38.77;101323.66;5021248;28;45378;-72
2022/07/29 15:22:52;;;;;;;;;6.00;5.00;;;;;27.92;38.13;101326.56;5021676;28;45474;-72
2022/07/29 15:25:18;;;;;;;;;6.00;6.00;;;;;27.88;38.08;101321.47;5031821;28;45874;-71
2022/07/29 15:27:43;;;;;;;;;6.00;6.00;;;;;27.91;38.16;101331.16;5013985;27;46524;-71
2022/07/29 15:30:09;;;;;;;;;8.67;7.00;;;;;27.93;38.75;101328.25;5024284;28;45558;-71
2022/07/29 15:32:35;;;;;;;;;6.67;5.00;;;;;27.96;38.38;101327.91;5021940;28;46297;-71
2022/07/29 15:35:00;;;;;;;;;5.33;5.33;;;;;27.97;38.54;101325.00;5030677;28;45447;-72
2022/07/29 15:37:28;;;;;;;;;8.00;6.33;;;;;27.97;38.20;101321.41;5022819;27;45812;-72
2022/07/29 15:39:53;;;;;;;;;5.00;5.00;;;;;27.97;38.11;101315.94;5026752;28;45551;-72
2022/07/29 15:42:18;;;;;;;;;5.00;5.00;;;;;27.97;38.43;101321.41;5017244;28;45554;-72
2022/07/29 15:44:43;;;;;;;;;5.67;5.33;;;;;27.95;38.15;101313.41;5021117;28;45512;-71
2022/07/29 15:47:09;;;;;;;;;4.33;4.33;;;;;27.94;38.11;101314.44;5030479;28;45507;-72
2022/07/29 15:49:39;;;;;;;;;7.33;6.67;;;;;27.94;38.67;101317.16;5031664;28;45404;-73
2022/07/29 15:52:07;;;;;;;;;4.00;4.00;;;;;27.94;38.45;101321.75;5021125;27;45498;-72
2022/07/29 15:54:34;;;;;;;;;8.67;7.67;;;;;27.94;38.57;101317.16;5018214;28;45459;-72
2022/07/29 15:56:59;;;;;;;;;6.33;6.33;;;;;27.94;38.13;101321.75;5042448;28;45320;-72
2022/07/29 15:59:25;;;;;;;;;5.67;5.00;;;;;27.92;38.67;101321.97;5028817;27;45429;-72
2022/07/29 16:01:50;;;;;;;;;5.00;5.00;;;;;27.92;38.85;101319.25;5014682;27;45329;-73
2022/07/29 16:04:16;;;;;;;;;5.00;5.00;;;;;27.93;38.84;101322.81;4998771;27;47167;-72
2022/07/29 16:06:41;;;;;;;;;6.67;6.67;;;;;27.93;38.70;101309.16;5012137;28;45666;-73
2022/07/29 16:09:07;;;;;;;;;5.00;5.00;;;;;27.98;38.03;101321.22;5024056;27;45594;-71
2022/07/29 16:11:32;;;;;;;;;8.00;5.00;;;;;28.01;38.23;101320.88;5028179;27;45406;-69
2022/07/29 16:13:58;;;;;;;;;6.33;5.33;;;;;28.04;38.82;101318.78;5025168;28;45356;-71
2022/07/29 16:16:23;;;;;;;;;4.67;4.67;;;;;28.05;38.11;101326.78;5032270;28;45931;-70
2022/07/29 16:18:48;;;;;;;;;6.00;6.00;;;;;28.06;38.27;101316.72;5026606;27;46093;-71
2022/07/29 16:21:14;;;;;;;;;7.67;6.33;;;;;28.08;38.03;101322.84;5021786;28;45599;-71
2022/07/29 16:23:39;;;;;;;;;4.33;4.33;;;;;28.08;38.66;101317.38;5016008;28;45450;-71
2022/07/29 16:26:05;;;;;;;;;6.00;5.00;;;;;28.09;38.45;101321.81;5033399;28;45436;-70
2022/07/29 16:28:30;;;;;;;;;4.67;4.67;;;;;28.08;38.29;101314.66;5020516;28;45747;-71
2022/07/29 16:30:56;;;;;;;;;6.00;6.00;;;;;28.06;38.38;101309.38;5032009;27;47152;-70
2022/07/29 16:33:22;;;;;;;;;7.67;6.00;;;;;28.04;38.04;101313.34;5024584;28;45981;-71
2022/07/29 16:35:48;;;;;;;;;4.67;4.67;;;;;28.04;38.17;101316.91;5051036;27;45420;-71
2022/07/29 16:38:13;;;;;;;;;5.33;4.00;;;;;28.05;38.39;101304.09;5045810;27;45430;-72
2022/07/29 16:40:38;;;;;;;;;6.00;5.00;;;;;28.04;38.03;101300.56;5031804;28;45545;-69
2022/07/29 16:43:03;;;;;;;;;7.00;6.67;;;;;28.05;38.73;101299.50;5026821;28;45620;-70
2022/07/29 16:45:29;;;;;;;;;5.33;4.00;;;;;28.08;38.79;101304.56;5025870;28;45414;-70
2022/07/29 16:47:54;;;;;;;;;5.00;5.00;;;;;28.09;38.54;101303.56;5010349;28;45648;-70
2022/07/29 16:50:19;;;;;;;;;5.00;5.00;;;;;28.10;38.00;101301.66;5020356;28;45489;-70
2022/07/29 16:52:45;;;;;;;;;4.00;4.00;;;;;28.10;38.04;101297.06;5025270;28;46030;-69
2022/07/29 16:55:10;;;;;;;;;5.00;5.00;;;;;28.09;38.15;101299.97;5018114;28;45335;-71
2022/07/29 16:57:35;;;;;;;;;6.00;6.00;;;;;28.05;38.58;101296.78;5018245;28;45631;-72
2022/07/29 17:00:01;;;;;;;;;5.00;5.00;;;;;28.04;38.88;101299.69;5025207;28;45432;-72
2022/07/29 17:02:27;;;;;;;;;5.33;5.00;;;;;28.00;38.26;101297.31;5016451;27;46129;-72
2022/07/29 17:04:52;;;;;;;;;5.00;5.00;;;;;27.99;38.06;101301.09;5028078;27;50504;-72
2022/07/29 17:07:17;;;;;;;;;6.00;4.33;;;;;27.98;38.42;101304.84;5016330;28;45648;-72
2022/07/29 17:09:43;;;;;;;;;7.00;5.00;;;;;27.94;38.89;101291.75;5025184;28;45330;-71
